sensor_id;sensor_type;location;lat;lon;timestamp;P1;durP1;ratioP1;P2;durP2;ratioP2
62941;SDS011;49042;47.318;19.874;2024-01-15T00:01:09;66.40;;;35.38;;
62941;SDS011;49042;47.318;19.874;2024-01-15T00:04:11;64.32;;;35.67;;
62941;SDS011;49042;47.318;19.874;2024-01-15T00:07:13;64.25;;;33.78;;
62941;SDS011;49042;47.318;19.874;2024-01-15T00:10:14;71.25;;;36.65;;
62941;SDS011;49042;47.318;19.874;2024-01-15T00:13:16;59.55;;;35.05;;
62941;SDS011;49042;47.318;19.874;2024-01-15T00:16:18;62.33;;;34.63;;
62941;SDS011;49042;47.318;19.874;2024-01-15T00:19:20;59.92;;;33.47;;
62941;SDS011;49042;47.318;19.874;2024-01-15T00:22:24;63.40;;;34.38;;
62941;SDS011;49042;47.318;19.874;2024-01-15T00:25:27;62.22;;;34.22;;
62941;SDS011;49042;47.318;19.874;2024-01-15T00:28:29;63.22;;;32.90;;
62941;SDS011;49042;47.318;19.874;2024-01-15T00:31:31;61.83;;;34.33;;
62941;SDS011;49042;47.318;19.874;2024-01-15T00:34:33;62.33;;;33.60;;
62941;SDS011;49042;47.318;19.874;2024-01-15T00:37:35;70.28;;;36.78;;
62941;SDS011;49042;47.318;19.874;2024-01-15T00:40:36;64.15;;;35.70;;
62941;SDS011;49042;47.318;19.874;2024-01-15T00:43:39;66.53;;;36.30;;
62941;SDS011;49042;47.318;19.874;2024-01-15T00:46:44;63.28;;;35.45;;
62941;SDS011;49042;47.318;19.874;2024-01-15T00:49:47;71.12;;;36.58;;
62941;SDS011;49042;47.318;19.874;2024-01-15T00:52:48;69.03;;;36.90;;
62941;SDS011;49042;47.318;19.874;2024-01-15T00:55:50;65.50;;;36.30;;
62941;SDS011;49042;47.318;19.874;2024-01-15T00:58:52;69.93;;;37.42;;
62941;SDS011;49042;47.318;19.874;2024-01-15T01:01:53;68.82;;;36.50;;
62941;SDS011;49042;47.318;19.874;2024-01-15T01:04:55;65.37;;;35.58;;
62941;SDS011;49042;47.318;19.874;2024-01-15T01:07:57;71.43;;;35.42;;
62941;SDS011;49042;47.318;19.874;2024-01-15T01:10:59;72.53;;;38.40;;
62941;SDS011;49042;47.318;19.874;2024-01-15T01:14:00;68.32;;;38.00;;
62941;SDS011;49042;47.318;19.874;2024-01-15T01:17:03;76.57;;;39.40;;
62941;SDS011;49042;47.318;19.874;2024-01-15T01:20:05;68.87;;;38.33;;
62941;SDS011;49042;47.318;19.874;2024-01-15T01:23:10;73.68;;;37.30;;
62941;SDS011;49042;47.318;19.874;2024-01-15T01:26:15;70.03;;;37.83;;
62941;SDS011;49042;47.318;19.874;2024-01-15T01:29:17;67.37;;;36.95;;
62941;SDS011;49042;47.318;19.874;2024-01-15T01:32:19;68.82;;;35.88;;
62941;SDS011;49042;47.318;19.874;2024-01-15T01:35:21;85.97;;;42.50;;
62941;SDS011;49042;47.318;19.874;2024-01-15T01:38:23;77.78;;;41.00;;
62941;SDS011;49042;47.318;19.874;2024-01-15T01:41:25;70.10;;;37.45;;
62941;SDS011;49042;47.318;19.874;2024-01-15T01:44:27;73.28;;;37.92;;
62941;SDS011;49042;47.318;19.874;2024-01-15T01:47:28;63.80;;;35.22;;
62941;SDS011;49042;47.318;19.874;2024-01-15T01:50:31;74.00;;;37.65;;
62941;SDS011;49042;47.318;19.874;2024-01-15T01:53:33;65.75;;;34.65;;
62941;SDS011;49042;47.318;19.874;2024-01-15T01:56:36;69.75;;;36.47;;
62941;SDS011;49042;47.318;19.874;2024-01-15T01:59:38;66.00;;;35.15;;
62941;SDS011;49042;47.318;19.874;2024-01-15T02:02:40;71.57;;;35.00;;
62941;SDS011;49042;47.318;19.874;2024-01-15T02:05:42;61.63;;;33.15;;
62941;SDS011;49042;47.318;19.874;2024-01-15T02:08:46;61.95;;;33.40;;
62941;SDS011;49042;47.318;19.874;2024-01-15T02:11:47;62.45;;;33.63;;
62941;SDS011;49042;47.318;19.874;2024-01-15T02:14:50;63.25;;;35.53;;
62941;SDS011;49042;47.318;19.874;2024-01-15T02:18:01;73.28;;;36.90;;
62941;SDS011;49042;47.318;19.874;2024-01-15T02:21:05;73.78;;;40.65;;
62941;SDS011;49042;47.318;19.874;2024-01-15T02:24:06;87.47;;;44.17;;
62941;SDS011;49042;47.318;19.874;2024-01-15T02:27:08;60.05;;;34.00;;
62941;SDS011;49042;47.318;19.874;2024-01-15T02:30:11;67.60;;;37.10;;
62941;SDS011;49042;47.318;19.874;2024-01-15T02:33:14;66.30;;;34.03;;
62941;SDS011;49042;47.318;19.874;2024-01-15T02:36:16;57.47;;;32.10;;
62941;SDS011;49042;47.318;19.874;2024-01-15T02:39:17;66.68;;;34.38;;
62941;SDS011;49042;47.318;19.874;2024-01-15T02:42:19;61.10;;;32.85;;
62941;SDS011;49042;47.318;19.874;2024-01-15T02:45:21;67.22;;;35.47;;
62941;SDS011;49042;47.318;19.874;2024-01-15T02:48:24;59.85;;;34.42;;
62941;SDS011;49042;47.318;19.874;2024-01-15T02:51:26;67.53;;;35.28;;
62941;SDS011;49042;47.318;19.874;2024-01-15T02:54:27;71.68;;;38.97;;
62941;SDS011;49042;47.318;19.874;2024-01-15T02:57:29;65.40;;;36.15;;
62941;SDS011;49042;47.318;19.874;2024-01-15T03:00:31;65.20;;;36.60;;
62941;SDS011;49042;47.318;19.874;2024-01-15T03:03:33;66.70;;;36.28;;
62941;SDS011;49042;47.318;19.874;2024-01-15T03:06:35;94.65;;;44.28;;
62941;SDS011;49042;47.318;19.874;2024-01-15T03:09:37;101.20;;;50.75;;
62941;SDS011;49042;47.318;19.874;2024-01-15T03:12:38;98.53;;;48.00;;
62941;SDS011;49042;47.318;19.874;2024-01-15T03:15:42;87.25;;;42.95;;
62941;SDS011;49042;47.318;19.874;2024-01-15T03:18:44;81.68;;;41.58;;
62941;SDS011;49042;47.318;19.874;2024-01-15T03:21:46;76.65;;;42.35;;
62941;SDS011;49042;47.318;19.874;2024-01-15T03:24:48;73.57;;;40.25;;
62941;SDS011;49042;47.318;19.874;2024-01-15T03:27:50;83.32;;;40.50;;
62941;SDS011;49042;47.318;19.874;2024-01-15T03:30:52;78.00;;;39.47;;
62941;SDS011;49042;47.318;19.874;2024-01-15T03:33:54;74.03;;;41.00;;
62941;SDS011;49042;47.318;19.874;2024-01-15T03:36:56;73.85;;;41.08;;
62941;SDS011;49042;47.318;19.874;2024-01-15T03:39:57;70.50;;;38.13;;
62941;SDS011;49042;47.318;19.874;2024-01-15T03:42:59;75.45;;;38.35;;
62941;SDS011;49042;47.318;19.874;2024-01-15T03:46:01;81.75;;;41.65;;
62941;SDS011;49042;47.318;19.874;2024-01-15T03:49:03;79.25;;;42.62;;
62941;SDS011;49042;47.318;19.874;2024-01-15T03:52:05;70.87;;;39.17;;
62941;SDS011;49042;47.318;19.874;2024-01-15T03:55:07;74.05;;;40.17;;
62941;SDS011;49042;47.318;19.874;2024-01-15T03:58:09;79.35;;;42.08;;
62941;SDS011;49042;47.318;19.874;2024-01-15T04:01:10;73.20;;;40.38;;
62941;SDS011;49042;47.318;19.874;2024-01-15T04:04:13;78.82;;;41.10;;
62941;SDS011;49042;47.318;19.874;2024-01-15T04:07:17;78.78;;;40.50;;
62941;SDS011;49042;47.318;19.874;2024-01-15T04:10:19;71.85;;;40.28;;
62941;SDS011;49042;47.318;19.874;2024-01-15T04:13:21;81.12;;;42.65;;
62941;SDS011;49042;47.318;19.874;2024-01-15T04:16:23;74.28;;;40.47;;
62941;SDS011;49042;47.318;19.874;2024-01-15T04:19:25;74.28;;;41.25;;
62941;SDS011;49042;47.318;19.874;2024-01-15T04:22:27;75.75;;;44.13;;
62941;SDS011;49042;47.318;19.874;2024-01-15T04:25:28;75.62;;;41.03;;
62941;SDS011;49042;47.318;19.874;2024-01-15T04:28:30;79.25;;;41.75;;
62941;SDS011;49042;47.318;19.874;2024-01-15T04:31:32;71.15;;;38.75;;
62941;SDS011;49042;47.318;19.874;2024-01-15T04:34:33;81.03;;;41.83;;
62941;SDS011;49042;47.318;19.874;2024-01-15T04:37:35;77.62;;;41.80;;
62941;SDS011;49042;47.318;19.874;2024-01-15T04:40:37;76.85;;;40.10;;
62941;SDS011;49042;47.318;19.874;2024-01-15T04:43:39;76.90;;;42.15;;
62941;SDS011;49042;47.318;19.874;2024-01-15T04:46:41;78.90;;;42.80;;
62941;SDS011;49042;47.318;19.874;2024-01-15T04:49:45;75.50;;;42.55;;
62941;SDS011;49042;47.318;19.874;2024-01-15T04:52:46;79.85;;;42.92;;
62941;SDS011;49042;47.318;19.874;2024-01-15T04:55:48;78.25;;;41.25;;
62941;SDS011;49042;47.318;19.874;2024-01-15T04:58:50;76.45;;;39.63;;
62941;SDS011;49042;47.318;19.874;2024-01-15T05:01:51;77.62;;;40.78;;
62941;SDS011;49042;47.318;19.874;2024-01-15T05:04:53;75.28;;;39.60;;
62941;SDS011;49042;47.318;19.874;2024-01-15T05:07:55;77.40;;;41.42;;
62941;SDS011;49042;47.318;19.874;2024-01-15T05:10:57;75.40;;;39.42;;
62941;SDS011;49042;47.318;19.874;2024-01-15T05:13:58;75.85;;;40.00;;
62941;SDS011;49042;47.318;19.874;2024-01-15T05:17:00;77.78;;;41.53;;
62941;SDS011;49042;47.318;19.874;2024-01-15T05:20:02;78.00;;;39.88;;
62941;SDS011;49042;47.318;19.874;2024-01-15T05:23:04;71.32;;;38.67;;
62941;SDS011;49042;47.318;19.874;2024-01-15T05:26:06;79.85;;;42.00;;
62941;SDS011;49042;47.318;19.874;2024-01-15T05:29:10;73.57;;;39.78;;
62941;SDS011;49042;47.318;19.874;2024-01-15T05:32:12;77.85;;;42.20;;
62941;SDS011;49042;47.318;19.874;2024-01-15T05:35:13;78.82;;;40.53;;
62941;SDS011;49042;47.318;19.874;2024-01-15T05:38:15;73.80;;;41.78;;
62941;SDS011;49042;47.318;19.874;2024-01-15T05:41:18;84.62;;;46.15;;
62941;SDS011;49042;47.318;19.874;2024-01-15T05:44:19;81.80;;;46.50;;
62941;SDS011;49042;47.318;19.874;2024-01-15T05:47:21;82.68;;;44.33;;
62941;SDS011;49042;47.318;19.874;2024-01-15T05:50:23;80.53;;;42.35;;
62941;SDS011;49042;47.318;19.874;2024-01-15T05:53:24;79.18;;;42.62;;
62941;SDS011;49042;47.318;19.874;2024-01-15T05:56:26;81.78;;;42.30;;
62941;SDS011;49042;47.318;19.874;2024-01-15T05:59:28;86.78;;;45.65;;
62941;SDS011;49042;47.318;19.874;2024-01-15T06:02:33;75.30;;;42.03;;
62941;SDS011;49042;47.318;19.874;2024-01-15T06:05:35;84.37;;;43.97;;
62941;SDS011;49042;47.318;19.874;2024-01-15T06:08:37;81.22;;;44.67;;
62941;SDS011;49042;47.318;19.874;2024-01-15T06:11:39;95.20;;;51.37;;
62941;SDS011;49042;47.318;19.874;2024-01-15T06:14:41;86.25;;;48.42;;
62941;SDS011;49042;47.318;19.874;2024-01-15T06:17:44;86.97;;;49.10;;
62941;SDS011;49042;47.318;19.874;2024-01-15T06:20:45;88.03;;;46.03;;
62941;SDS011;49042;47.318;19.874;2024-01-15T06:23:47;104.80;;;53.65;;
62941;SDS011;49042;47.318;19.874;2024-01-15T06:26:49;119.28;;;64.37;;
62941;SDS011;49042;47.318;19.874;2024-01-15T06:29:51;112.28;;;58.53;;
62941;SDS011;49042;47.318;19.874;2024-01-15T06:32:52;112.28;;;58.63;;
62941;SDS011;49042;47.318;19.874;2024-01-15T06:35:54;214.65;;;121.03;;
62941;SDS011;49042;47.318;19.874;2024-01-15T06:38:57;134.40;;;73.65;;
62941;SDS011;49042;47.318;19.874;2024-01-15T06:41:59;84.07;;;43.47;;
62941;SDS011;49042;47.318;19.874;2024-01-15T06:45:00;79.75;;;46.30;;
62941;SDS011;49042;47.318;19.874;2024-01-15T06:48:02;77.85;;;42.40;;
62941;SDS011;49042;47.318;19.874;2024-01-15T06:51:04;81.43;;;42.92;;
62941;SDS011;49042;47.318;19.874;2024-01-15T06:54:06;73.45;;;41.08;;
62941;SDS011;49042;47.318;19.874;2024-01-15T06:57:08;77.18;;;41.72;;
62941;SDS011;49042;47.318;19.874;2024-01-15T07:00:10;71.35;;;40.60;;
62941;SDS011;49042;47.318;19.874;2024-01-15T07:03:12;74.20;;;39.53;;
62941;SDS011;49042;47.318;19.874;2024-01-15T07:06:14;67.15;;;39.13;;
62941;SDS011;49042;47.318;19.874;2024-01-15T07:09:16;70.32;;;38.75;;
62941;SDS011;49042;47.318;19.874;2024-01-15T07:12:18;97.43;;;50.85;;
62941;SDS011;49042;47.318;19.874;2024-01-15T07:15:20;68.10;;;36.83;;
62941;SDS011;49042;47.318;19.874;2024-01-15T07:18:21;62.35;;;34.42;;
62941;SDS011;49042;47.318;19.874;2024-01-15T07:21:23;76.32;;;40.15;;
62941;SDS011;49042;47.318;19.874;2024-01-15T07:24:25;63.28;;;34.53;;
62941;SDS011;49042;47.318;19.874;2024-01-15T07:27:27;57.35;;;30.30;;
62941;SDS011;49042;47.318;19.874;2024-01-15T07:30:29;48.97;;;29.15;;
62941;SDS011;49042;47.318;19.874;2024-01-15T07:33:30;51.15;;;28.75;;
62941;SDS011;49042;47.318;19.874;2024-01-15T07:36:32;51.37;;;29.67;;
62941;SDS011;49042;47.318;19.874;2024-01-15T07:39:34;52.67;;;29.00;;
62941;SDS011;49042;47.318;19.874;2024-01-15T07:42:36;57.90;;;33.85;;
62941;SDS011;49042;47.318;19.874;2024-01-15T07:45:38;51.63;;;27.13;;
62941;SDS011;49042;47.318;19.874;2024-01-15T07:48:42;47.33;;;25.90;;
62941;SDS011;49042;47.318;19.874;2024-01-15T07:51:45;50.05;;;24.67;;
62941;SDS011;49042;47.318;19.874;2024-01-15T07:54:47;42.00;;;24.40;;
62941;SDS011;49042;47.318;19.874;2024-01-15T07:57:49;46.40;;;25.12;;
62941;SDS011;49042;47.318;19.874;2024-01-15T08:01:11;51.25;;;26.05;;
62941;SDS011;49042;47.318;19.874;2024-01-15T08:04:13;43.70;;;24.00;;
62941;SDS011;49042;47.318;19.874;2024-01-15T08:07:16;38.70;;;22.85;;
62941;SDS011;49042;47.318;19.874;2024-01-15T08:10:19;42.17;;;21.20;;
62941;SDS011;49042;47.318;19.874;2024-01-15T08:13:21;36.35;;;20.00;;
62941;SDS011;49042;47.318;19.874;2024-01-15T08:16:22;38.72;;;21.02;;
62941;SDS011;49042;47.318;19.874;2024-01-15T08:19:26;33.28;;;19.92;;
62941;SDS011;49042;47.318;19.874;2024-01-15T08:22:28;37.95;;;22.60;;
62941;SDS011;49042;47.318;19.874;2024-01-15T08:25:32;40.85;;;21.15;;
62941;SDS011;49042;47.318;19.874;2024-01-15T08:28:34;34.33;;;18.95;;
62941;SDS011;49042;47.318;19.874;2024-01-15T08:31:39;33.90;;;16.90;;
62941;SDS011;49042;47.318;19.874;2024-01-15T08:34:41;29.23;;;16.85;;
62941;SDS011;49042;47.318;19.874;2024-01-15T08:37:49;45.47;;;26.75;;
62941;SDS011;49042;47.318;19.874;2024-01-15T08:40:51;37.03;;;21.25;;
62941;SDS011;49042;47.318;19.874;2024-01-15T08:43:55;30.98;;;18.37;;
62941;SDS011;49042;47.318;19.874;2024-01-15T08:46:56;28.20;;;18.20;;
62941;SDS011;49042;47.318;19.874;2024-01-15T08:49:58;70.35;;;36.38;;
62941;SDS011;49042;47.318;19.874;2024-01-15T08:53:00;51.78;;;28.02;;
62941;SDS011;49042;47.318;19.874;2024-01-15T08:56:02;42.58;;;24.65;;
62941;SDS011;49042;47.318;19.874;2024-01-15T08:59:04;36.35;;;22.05;;
62941;SDS011;49042;47.318;19.874;2024-01-15T09:02:05;37.40;;;23.42;;
62941;SDS011;49042;47.318;19.874;2024-01-15T09:05:08;31.83;;;20.50;;
62941;SDS011;49042;47.318;19.874;2024-01-15T09:08:11;27.42;;;17.17;;
62941;SDS011;49042;47.318;19.874;2024-01-15T09:11:13;27.58;;;16.62;;
62941;SDS011;49042;47.318;19.874;2024-01-15T09:14:14;29.00;;;17.87;;
62941;SDS011;49042;47.318;19.874;2024-01-15T09:17:19;25.23;;;16.77;;
62941;SDS011;49042;47.318;19.874;2024-01-15T09:20:23;26.40;;;16.50;;
62941;SDS011;49042;47.318;19.874;2024-01-15T09:23:25;29.95;;;18.15;;
62941;SDS011;49042;47.318;19.874;2024-01-15T09:26:29;25.77;;;16.25;;
62941;SDS011;49042;47.318;19.874;2024-01-15T09:29:31;36.67;;;17.55;;
62941;SDS011;49042;47.318;19.874;2024-01-15T09:32:33;36.15;;;17.67;;
62941;SDS011;49042;47.318;19.874;2024-01-15T09:35:35;28.20;;;16.40;;
62941;SDS011;49042;47.318;19.874;2024-01-15T09:38:37;35.58;;;19.05;;
62941;SDS011;49042;47.318;19.874;2024-01-15T09:41:38;29.30;;;16.12;;
62941;SDS011;49042;47.318;19.874;2024-01-15T09:44:40;27.17;;;17.12;;
62941;SDS011;49042;47.318;19.874;2024-01-15T09:47:42;29.52;;;15.73;;
62941;SDS011;49042;47.318;19.874;2024-01-15T09:50:47;26.17;;;14.80;;
62941;SDS011;49042;47.318;19.874;2024-01-15T09:53:49;42.97;;;16.50;;
62941;SDS011;49042;47.318;19.874;2024-01-15T09:56:52;25.75;;;15.18;;
62941;SDS011;49042;47.318;19.874;2024-01-15T09:59:54;30.45;;;15.95;;
62941;SDS011;49042;47.318;19.874;2024-01-15T10:02:58;25.58;;;14.52;;
62941;SDS011;49042;47.318;19.874;2024-01-15T10:06:01;30.30;;;15.23;;
62941;SDS011;49042;47.318;19.874;2024-01-15T10:09:04;26.85;;;15.02;;
62941;SDS011;49042;47.318;19.874;2024-01-15T10:12:07;23.83;;;12.75;;
62941;SDS011;49042;47.318;19.874;2024-01-15T10:15:10;28.33;;;14.80;;
62941;SDS011;49042;47.318;19.874;2024-01-15T10:18:15;27.87;;;14.23;;
62941;SDS011;49042;47.318;19.874;2024-01-15T10:21:17;29.77;;;16.12;;
62941;SDS011;49042;47.318;19.874;2024-01-15T10:24:19;24.30;;;14.30;;
62941;SDS011;49042;47.318;19.874;2024-01-15T10:27:21;32.90;;;16.73;;
62941;SDS011;49042;47.318;19.874;2024-01-15T10:30:22;93.18;;;49.75;;
62941;SDS011;49042;47.318;19.874;2024-01-15T10:33:26;26.00;;;12.80;;
62941;SDS011;49042;47.318;19.874;2024-01-15T10:36:28;23.42;;;13.80;;
62941;SDS011;49042;47.318;19.874;2024-01-15T10:39:30;23.42;;;12.52;;
62941;SDS011;49042;47.318;19.874;2024-01-15T10:42:33;26.60;;;12.15;;
62941;SDS011;49042;47.318;19.874;2024-01-15T10:45:35;30.50;;;14.02;;
62941;SDS011;49042;47.318;19.874;2024-01-15T10:48:36;22.58;;;12.77;;
62941;SDS011;49042;47.318;19.874;2024-01-15T10:51:38;21.75;;;12.05;;
62941;SDS011;49042;47.318;19.874;2024-01-15T10:54:42;22.65;;;13.13;;
62941;SDS011;49042;47.318;19.874;2024-01-15T10:57:45;22.15;;;12.05;;
62941;SDS011;49042;47.318;19.874;2024-01-15T11:00:51;19.87;;;12.32;;
62941;SDS011;49042;47.318;19.874;2024-01-15T11:03:54;18.92;;;12.30;;
62941;SDS011;49042;47.318;19.874;2024-01-15T11:06:57;14.40;;;9.10;;
62941;SDS011;49042;47.318;19.874;2024-01-15T11:09:59;14.02;;;8.35;;
62941;SDS011;49042;47.318;19.874;2024-01-15T11:13:01;13.07;;;7.30;;
62941;SDS011;49042;47.318;19.874;2024-01-15T11:16:05;13.25;;;7.60;;
62941;SDS011;49042;47.318;19.874;2024-01-15T11:19:08;12.70;;;7.60;;
62941;SDS011;49042;47.318;19.874;2024-01-15T11:22:47;13.93;;;7.95;;
62941;SDS011;49042;47.318;19.874;2024-01-15T11:25:50;12.80;;;8.38;;
62941;SDS011;49042;47.318;19.874;2024-01-15T11:28:52;20.45;;;10.93;;
62941;SDS011;49042;47.318;19.874;2024-01-15T11:34:56;13.07;;;8.20;;
62941;SDS011;49042;47.318;19.874;2024-01-15T11:38:01;13.15;;;7.40;;
62941;SDS011;49042;47.318;19.874;2024-01-15T11:41:05;16.65;;;9.15;;
62941;SDS011;49042;47.318;19.874;2024-01-15T11:44:16;36.67;;;18.37;;
62941;SDS011;49042;47.318;19.874;2024-01-15T11:47:22;17.52;;;7.57;;
62941;SDS011;49042;47.318;19.874;2024-01-15T11:50:45;11.35;;;7.37;;
62941;SDS011;49042;47.318;19.874;2024-01-15T11:53:49;9.65;;;6.25;;
62941;SDS011;49042;47.318;19.874;2024-01-15T11:56:57;15.10;;;7.10;;
62941;SDS011;49042;47.318;19.874;2024-01-15T12:00:04;24.20;;;11.30;;
62941;SDS011;49042;47.318;19.874;2024-01-15T12:03:09;20.42;;;10.77;;
62941;SDS011;49042;47.318;19.874;2024-01-15T12:06:11;24.00;;;14.00;;
62941;SDS011;49042;47.318;19.874;2024-01-15T12:09:14;17.05;;;10.13;;
62941;SDS011;49042;47.318;19.874;2024-01-15T12:12:19;18.73;;;11.35;;
62941;SDS011;49042;47.318;19.874;2024-01-15T12:15:29;16.17;;;11.15;;
62941;SDS011;49042;47.318;19.874;2024-01-15T12:18:31;16.05;;;10.02;;
62941;SDS011;49042;47.318;19.874;2024-01-15T12:21:33;17.73;;;11.10;;
62941;SDS011;49042;47.318;19.874;2024-01-15T12:24:35;25.23;;;13.25;;
62941;SDS011;49042;47.318;19.874;2024-01-15T12:27:37;17.42;;;11.45;;
62941;SDS011;49042;47.318;19.874;2024-01-15T12:30:39;29.15;;;16.70;;
62941;SDS011;49042;47.318;19.874;2024-01-15T12:33:41;20.70;;;11.90;;
62941;SDS011;49042;47.318;19.874;2024-01-15T12:36:43;19.23;;;9.43;;
62941;SDS011;49042;47.318;19.874;2024-01-15T12:39:48;22.62;;;10.35;;
62941;SDS011;49042;47.318;19.874;2024-01-15T12:42:50;17.45;;;10.80;;
62941;SDS011;49042;47.318;19.874;2024-01-15T12:45:51;22.37;;;12.02;;
62941;SDS011;49042;47.318;19.874;2024-01-15T12:48:53;19.52;;;10.38;;
62941;SDS011;49042;47.318;19.874;2024-01-15T12:51:57;13.98;;;8.48;;
62941;SDS011;49042;47.318;19.874;2024-01-15T12:54:59;22.85;;;8.10;;
62941;SDS011;49042;47.318;19.874;2024-01-15T12:58:01;16.92;;;8.02;;
62941;SDS011;49042;47.318;19.874;2024-01-15T13:01:03;13.73;;;8.30;;
62941;SDS011;49042;47.318;19.874;2024-01-15T13:04:05;16.60;;;8.32;;
62941;SDS011;49042;47.318;19.874;2024-01-15T13:07:10;19.15;;;10.48;;
62941;SDS011;49042;47.318;19.874;2024-01-15T13:10:12;16.70;;;8.60;;
62941;SDS011;49042;47.318;19.874;2024-01-15T13:13:14;29.12;;;10.75;;
62941;SDS011;49042;47.318;19.874;2024-01-15T13:16:16;18.73;;;10.07;;
62941;SDS011;49042;47.318;19.874;2024-01-15T13:19:17;17.85;;;10.30;;
62941;SDS011;49042;47.318;19.874;2024-01-15T13:22:20;15.55;;;8.45;;
62941;SDS011;49042;47.318;19.874;2024-01-15T13:25:24;14.32;;;8.70;;
62941;SDS011;49042;47.318;19.874;2024-01-15T13:28:26;11.77;;;7.95;;
62941;SDS011;49042;47.318;19.874;2024-01-15T13:31:28;14.27;;;7.90;;
62941;SDS011;49042;47.318;19.874;2024-01-15T13:34:30;13.13;;;8.32;;
62941;SDS011;49042;47.318;19.874;2024-01-15T13:37:34;13.43;;;7.72;;
62941;SDS011;49042;47.318;19.874;2024-01-15T13:40:36;14.60;;;8.15;;
62941;SDS011;49042;47.318;19.874;2024-01-15T13:43:37;14.63;;;7.57;;
62941;SDS011;49042;47.318;19.874;2024-01-15T13:46:39;14.75;;;9.68;;
62941;SDS011;49042;47.318;19.874;2024-01-15T13:49:40;12.77;;;7.20;;
62941;SDS011;49042;47.318;19.874;2024-01-15T13:52:42;12.43;;;7.55;;
62941;SDS011;49042;47.318;19.874;2024-01-15T13:55:44;13.62;;;7.05;;
62941;SDS011;49042;47.318;19.874;2024-01-15T13:58:46;14.02;;;7.80;;
62941;SDS011;49042;47.318;19.874;2024-01-15T14:01:49;14.43;;;7.32;;
62941;SDS011;49042;47.318;19.874;2024-01-15T14:04:51;15.40;;;7.07;;
62941;SDS011;49042;47.318;19.874;2024-01-15T14:07:52;14.68;;;6.50;;
62941;SDS011;49042;47.318;19.874;2024-01-15T14:10:54;11.25;;;6.35;;
62941;SDS011;49042;47.318;19.874;2024-01-15T14:13:58;12.00;;;5.70;;
62941;SDS011;49042;47.318;19.874;2024-01-15T14:17:00;11.43;;;6.32;;
62941;SDS011;49042;47.318;19.874;2024-01-15T14:20:01;11.07;;;6.07;;
62941;SDS011;49042;47.318;19.874;2024-01-15T14:23:07;11.85;;;6.35;;
62941;SDS011;49042;47.318;19.874;2024-01-15T14:26:08;10.82;;;6.43;;
62941;SDS011;49042;47.318;19.874;2024-01-15T14:29:10;12.95;;;6.70;;
62941;SDS011;49042;47.318;19.874;2024-01-15T14:32:12;12.45;;;6.32;;
62941;SDS011;49042;47.318;19.874;2024-01-15T14:35:14;11.43;;;6.07;;
62941;SDS011;49042;47.318;19.874;2024-01-15T14:38:16;11.98;;;5.93;;
62941;SDS011;49042;47.318;19.874;2024-01-15T14:41:17;17.23;;;7.62;;
62941;SDS011;49042;47.318;19.874;2024-01-15T14:44:19;18.48;;;9.50;;
62941;SDS011;49042;47.318;19.874;2024-01-15T14:47:22;19.95;;;9.65;;
62941;SDS011;49042;47.318;19.874;2024-01-15T14:50:26;20.75;;;8.82;;
62941;SDS011;49042;47.318;19.874;2024-01-15T14:53:27;20.85;;;8.70;;
62941;SDS011;49042;47.318;19.874;2024-01-15T14:56:29;26.90;;;10.60;;
62941;SDS011;49042;47.318;19.874;2024-01-15T14:59:31;15.52;;;7.97;;
62941;SDS011;49042;47.318;19.874;2024-01-15T15:02:33;18.62;;;7.72;;
62941;SDS011;49042;47.318;19.874;2024-01-15T15:05:36;13.18;;;8.00;;
62941;SDS011;49042;47.318;19.874;2024-01-15T15:08:38;16.33;;;9.02;;
62941;SDS011;49042;47.318;19.874;2024-01-15T15:11:40;19.35;;;8.35;;
62941;SDS011;49042;47.318;19.874;2024-01-15T15:14:42;15.57;;;7.55;;
62941;SDS011;49042;47.318;19.874;2024-01-15T15:18:00;17.42;;;8.52;;
62941;SDS011;49042;47.318;19.874;2024-01-15T15:21:02;17.33;;;10.77;;
62941;SDS011;49042;47.318;19.874;2024-01-15T15:24:05;16.00;;;9.40;;
62941;SDS011;49042;47.318;19.874;2024-01-15T15:27:06;18.75;;;9.85;;
62941;SDS011;49042;47.318;19.874;2024-01-15T15:30:09;22.20;;;11.60;;
62941;SDS011;49042;47.318;19.874;2024-01-15T15:33:11;20.08;;;9.82;;
62941;SDS011;49042;47.318;19.874;2024-01-15T15:36:12;23.25;;;10.80;;
62941;SDS011;49042;47.318;19.874;2024-01-15T15:39:14;23.08;;;11.05;;
62941;SDS011;49042;47.318;19.874;2024-01-15T15:42:19;26.58;;;12.00;;
62941;SDS011;49042;47.318;19.874;2024-01-15T15:45:21;23.30;;;11.63;;
62941;SDS011;49042;47.318;19.874;2024-01-15T15:48:23;21.48;;;10.88;;
62941;SDS011;49042;47.318;19.874;2024-01-15T15:51:25;20.65;;;11.25;;
62941;SDS011;49042;47.318;19.874;2024-01-15T15:54:27;24.17;;;11.77;;
62941;SDS011;49042;47.318;19.874;2024-01-15T15:57:28;22.05;;;11.32;;
62941;SDS011;49042;47.318;19.874;2024-01-15T16:00:31;20.30;;;9.45;;
62941;SDS011;49042;47.318;19.874;2024-01-15T16:03:33;15.32;;;9.30;;
62941;SDS011;49042;47.318;19.874;2024-01-15T16:06:35;21.52;;;9.55;;
62941;SDS011;49042;47.318;19.874;2024-01-15T16:09:37;18.15;;;8.38;;
62941;SDS011;49042;47.318;19.874;2024-01-15T16:12:39;16.33;;;8.13;;
62941;SDS011;49042;47.318;19.874;2024-01-15T16:15:41;15.32;;;8.02;;
62941;SDS011;49042;47.318;19.874;2024-01-15T16:18:43;13.48;;;6.57;;
62941;SDS011;49042;47.318;19.874;2024-01-15T16:22:06;8.55;;;5.90;;
62941;SDS011;49042;47.318;19.874;2024-01-15T16:25:29;13.93;;;6.35;;
62941;SDS011;49042;47.318;19.874;2024-01-15T16:28:32;11.60;;;7.43;;
62941;SDS011;49042;47.318;19.874;2024-01-15T16:31:34;17.12;;;8.93;;
62941;SDS011;49042;47.318;19.874;2024-01-15T16:34:36;16.80;;;7.68;;
62941;SDS011;49042;47.318;19.874;2024-01-15T16:37:38;21.08;;;10.93;;
62941;SDS011;49042;47.318;19.874;2024-01-15T16:40:40;20.55;;;11.10;;
62941;SDS011;49042;47.318;19.874;2024-01-15T16:43:41;26.92;;;14.60;;
62941;SDS011;49042;47.318;19.874;2024-01-15T16:46:43;34.55;;;17.85;;
62941;SDS011;49042;47.318;19.874;2024-01-15T16:49:45;34.80;;;17.30;;
62941;SDS011;49042;47.318;19.874;2024-01-15T16:52:47;37.85;;;19.87;;
62941;SDS011;49042;47.318;19.874;2024-01-15T16:55:48;41.63;;;20.73;;
62941;SDS011;49042;47.318;19.874;2024-01-15T16:58:50;40.38;;;21.60;;
62941;SDS011;49042;47.318;19.874;2024-01-15T17:01:55;38.70;;;21.23;;
62941;SDS011;49042;47.318;19.874;2024-01-15T17:04:56;57.53;;;28.73;;
62941;SDS011;49042;47.318;19.874;2024-01-15T17:07:58;61.97;;;36.13;;
62941;SDS011;49042;47.318;19.874;2024-01-15T17:11:00;40.28;;;20.58;;
62941;SDS011;49042;47.318;19.874;2024-01-15T17:14:14;41.55;;;22.40;;
62941;SDS011;49042;47.318;19.874;2024-01-15T17:17:16;43.45;;;22.33;;
62941;SDS011;49042;47.318;19.874;2024-01-15T17:20:34;40.10;;;22.33;;
62941;SDS011;49042;47.318;19.874;2024-01-15T17:23:36;38.85;;;22.67;;
62941;SDS011;49042;47.318;19.874;2024-01-15T17:26:38;42.17;;;23.02;;
62941;SDS011;49042;47.318;19.874;2024-01-15T17:29:52;39.38;;;21.62;;
62941;SDS011;49042;47.318;19.874;2024-01-15T17:33:09;34.30;;;20.12;;
62941;SDS011;49042;47.318;19.874;2024-01-15T17:36:15;38.25;;;19.92;;
62941;SDS011;49042;47.318;19.874;2024-01-15T17:39:17;36.45;;;20.52;;